createdAt,value
2018-02-21T00:00:23.670Z,102.62
2018-02-21T00:01:27.920Z,100.80
2018-02-21T00:02:32.113Z,90.53
2018-02-21T00:03:36.320Z,102.50
2018-02-21T00:04:40.546Z,104.93
2018-02-21T00:05:47.074Z,97.12
2018-02-21T00:06:51.437Z,104.55
2018-02-21T00:07:56.427Z,98.25
2018-02-21T00:09:00.652Z,105.10
2018-02-21T00:10:04.897Z,99.35
2018-02-21T00:11:09.140Z,106.65
2018-02-21T00:12:15.153Z,111.32
2018-02-21T00:13:19.834Z,103.28
2018-02-21T00:14:24.200Z,104.45
2018-02-21T00:15:28.411Z,103.70
2018-02-21T00:16:33.405Z,110.63
2018-02-21T00:17:37.624Z,106.18
2018-02-21T00:18:42.000Z,105.80
2018-02-21T00:19:47.584Z,108.20
2018-02-21T00:20:52.004Z,127.03
2018-02-21T00:21:56.259Z,105.87
2018-02-21T00:23:01.236Z,103.80
2018-02-21T00:24:05.448Z,95.68
2018-02-21T00:25:09.710Z,108.47
2018-02-21T00:26:15.294Z,108.15
2018-02-21T00:27:20.617Z,122.80
2018-02-21T00:28:26.360Z,114.97
2018-02-21T00:29:30.572Z,108.65
2018-02-21T00:30:34.827Z,102.05
2018-02-21T00:31:39.046Z,111.55
2018-02-21T00:32:43.599Z,112.97
2018-02-21T00:33:47.995Z,108.18
2018-02-21T00:34:52.351Z,104.03
2018-02-21T00:35:57.434Z,102.70
2018-02-21T00:37:01.645Z,109.53
2018-02-21T00:38:06.623Z,94.18
2018-02-21T00:39:10.909Z,103.60
2018-02-21T00:40:16.219Z,105.85
2018-02-21T00:41:21.294Z,99.35
2018-02-21T00:42:25.564Z,101.82
2018-02-21T00:43:30.544Z,115.28
2018-02-21T00:44:34.807Z,110.63
2018-02-21T00:45:39.798Z,109.82
2018-02-21T00:46:45.977Z,103.75
2018-02-21T00:47:50.430Z,111.37
2018-02-21T00:48:54.693Z,105.43
2018-02-21T00:49:59.796Z,110.70
2018-02-21T00:51:03.984Z,108.68
2018-02-21T00:52:08.989Z,112.95
2018-02-21T00:53:15.579Z,105.82
2018-02-21T00:54:19.891Z,114.12
2018-02-21T00:55:24.215Z,112.60
2018-02-21T00:56:28.447Z,113.93
2018-02-21T00:57:32.655Z,103.72
2018-02-21T00:58:36.918Z,111.10
2018-02-21T00:59:41.989Z,110.60
2018-02-21T01:00:46.907Z,115.25
2018-02-21T01:01:51.166Z,108.15
2018-02-21T01:02:55.438Z,107.63
2018-02-21T01:03:59.638Z,98.47
2018-02-21T01:05:03.876Z,105.05
2018-02-21T01:06:08.120Z,117.62
2018-02-21T01:07:12.725Z,100.53
2018-02-21T01:08:17.188Z,101.15
2018-02-21T01:09:21.467Z,109.05
2018-02-21T01:10:25.750Z,101.45
2018-02-21T01:11:30.022Z,106.87
2018-02-21T01:12:35.004Z,107.45
2018-02-21T01:13:39.211Z,118.80
2018-02-21T01:14:43.837Z,109.97
2018-02-21T01:15:49.523Z,112.68
2018-02-21T01:16:54.643Z,109.63
2018-02-21T01:17:58.877Z,108.87
2018-02-21T01:19:03.091Z,106.93
2018-02-21T01:20:07.308Z,99.10
2018-02-21T01:21:11.578Z,108.47
2018-02-21T01:22:17.056Z,113.22
2018-02-21T01:23:21.303Z,101.90
2018-02-21T01:24:25.529Z,105.12
2018-02-21T01:25:29.719Z,124.12
2018-02-21T01:26:33.911Z,105.63
2018-02-21T01:27:38.118Z,106.82
2018-02-21T01:28:42.788Z,118.70
2018-02-21T01:29:48.070Z,115.32
2018-02-21T01:30:52.660Z,109.93
2018-02-21T01:31:56.903Z,98.12
2018-02-21T01:33:01.114Z,100.35
2018-02-21T01:34:05.354Z,102.57
2018-02-21T01:35:09.565Z,109.80
2018-02-21T01:36:13.963Z,109.60
2018-02-21T01:37:19.059Z,108.63
2018-02-21T01:38:24.180Z,114.43
2018-02-21T01:39:28.406Z,110.15
2018-02-21T01:40:33.439Z,125.07
2018-02-21T01:41:38.396Z,128.57
2018-02-21T01:42:42.779Z,115.82
2018-02-21T01:43:47.462Z,113.22
2018-02-21T01:44:51.729Z,125.82
2018-02-21T01:45:56.116Z,114.37
2018-02-21T01:47:01.091Z,106.87
2018-02-21T01:48:05.282Z,118.77
2018-02-21T01:49:09.493Z,113.88
2018-02-21T01:50:13.815Z,106.97
2018-02-21T01:51:18.148Z,115.32
2018-02-21T01:52:22.395Z,111.85
2018-02-21T01:53:26.648Z,118.18
2018-02-21T01:54:30.860Z,116.82
2018-02-21T01:55:35.072Z,111.62
2018-02-21T01:56:39.306Z,106.07
2018-02-21T01:57:44.200Z,109.78
2018-02-21T01:58:48.540Z,109.32
2018-02-21T01:59:53.008Z,106.87
2018-02-21T02:00:57.222Z,94.70
2018-02-21T02:02:02.202Z,110.32
2018-02-21T02:03:06.429Z,110.47
2018-02-21T02:04:10.739Z,111.85
2018-02-21T02:05:15.918Z,125.70
2018-02-21T02:06:20.318Z,108.35
2018-02-21T02:07:25.287Z,113.75
2018-02-21T02:08:29.512Z,115.85
2018-02-21T02:09:33.770Z,123.38
2018-02-21T02:10:38.764Z,132.05
2018-02-21T02:11:43.192Z,128.10
2018-02-21T02:12:47.748Z,108.63
2018-02-21T02:13:52.283Z,109.22
2018-02-21T02:14:56.496Z,113.35
2018-02-21T02:16:00.753Z,121.55
2018-02-21T02:17:04.956Z,105.87
2018-02-21T02:18:09.180Z,119.90
2018-02-21T02:19:13.772Z,119.70
2018-02-21T02:20:18.043Z,115.30
2018-02-21T02:21:22.377Z,119.87
2018-02-21T02:22:26.617Z,126.25
2018-02-21T02:23:30.821Z,122.65
2018-02-21T02:24:35.048Z,140.80
2018-02-21T02:25:39.262Z,118.97
2018-02-21T02:26:44.129Z,125.28
2018-02-21T02:27:48.458Z,130.07
2018-02-21T02:28:52.777Z,125.45
2018-02-21T02:29:57.003Z,128.55
2018-02-21T02:31:01.195Z,110.95
2018-02-21T02:32:05.436Z,132.10
2018-02-21T02:33:09.652Z,126.55
2018-02-21T02:34:14.468Z,123.90
2018-02-21T02:35:19.358Z,113.97
2018-02-21T02:36:23.664Z,122.18
2018-02-21T02:37:27.899Z,124.70
2018-02-21T02:38:47.982Z,119.78
2018-02-21T02:40:01.100Z,118.57
2018-02-21T02:41:05.325Z,115.25
2018-02-21T02:42:09.531Z,129.10
2018-02-21T02:43:13.879Z,130.98
2018-02-21T02:44:18.973Z,111.00
2018-02-21T02:45:23.458Z,133.37
2018-02-21T02:46:27.691Z,114.12
2018-02-21T02:47:31.908Z,128.87
2018-02-21T02:48:36.134Z,130.10
2018-02-21T02:49:40.458Z,118.13
2018-02-21T02:50:45.558Z,126.05
2018-02-21T02:51:50.990Z,121.97
2018-02-21T02:52:55.611Z,114.97
2018-02-21T02:53:59.799Z,131.25
2018-02-21T02:55:04.792Z,121.90
2018-02-21T02:56:09.160Z,115.10
2018-02-21T02:57:14.373Z,116.95
2018-02-21T02:58:19.310Z,123.32
2018-02-21T02:59:23.605Z,107.50
2018-02-21T03:00:28.648Z,114.88
2018-02-21T03:01:33.632Z,126.07
2018-02-21T03:02:37.866Z,129.20
2018-02-21T03:03:42.799Z,134.43
2018-02-21T03:04:48.058Z,116.28
2018-02-21T03:05:52.443Z,124.60
2018-02-21T03:06:57.446Z,109.85
2018-02-21T03:08:01.655Z,119.70
2018-02-21T03:09:05.867Z,118.72
2018-02-21T03:10:10.056Z,110.18
2018-02-21T03:11:15.194Z,125.25
2018-02-21T03:12:19.605Z,130.07
2018-02-21T03:13:24.109Z,126.62
2018-02-21T03:14:28.316Z,134.48
2018-02-21T03:15:32.504Z,128.55
2018-02-21T03:16:37.550Z,118.93
2018-02-21T03:17:42.534Z,130.37
2018-02-21T03:18:47.668Z,126.62
2018-02-21T03:19:52.021Z,118.47
2018-02-21T03:20:56.311Z,126.07
2018-02-21T03:22:00.563Z,128.80
2018-02-21T03:23:04.754Z,138.98
2018-02-21T03:24:09.749Z,129.80
2018-02-21T03:25:15.269Z,138.25
2018-02-21T03:26:19.894Z,115.03
2018-02-21T03:27:24.267Z,120.65
2018-02-21T03:28:28.485Z,125.30
2018-02-21T03:29:32.687Z,131.90
2018-02-21T03:30:36.890Z,128.95
2018-02-21T03:31:42.135Z,129.52
2018-02-21T03:32:46.935Z,123.53
2018-02-21T03:33:51.942Z,126.60
2018-02-21T03:34:56.171Z,129.63
2018-02-21T03:36:00.384Z,125.87
2018-02-21T03:37:04.612Z,127.28
2018-02-21T03:38:08.840Z,118.18
2018-02-21T03:39:13.703Z,118.13
2018-02-21T03:40:18.121Z,130.73
2018-02-21T03:41:22.739Z,131.60
2018-02-21T03:42:27.804Z,129.40
2018-02-21T03:43:32.763Z,121.55
2018-02-21T03:44:36.982Z,117.75
2018-02-21T03:45:41.653Z,129.27
2018-02-21T03:46:46.177Z,144.43
2018-02-21T03:47:50.525Z,130.63
2018-02-21T03:48:54.814Z,121.87
2018-02-21T03:49:59.785Z,138.02
2018-02-21T03:51:04.028Z,140.27
2018-02-21T03:52:08.324Z,122.10
2018-02-21T03:53:12.970Z,131.35
2018-02-21T03:54:18.424Z,128.30
2018-02-21T03:55:23.479Z,126.53
2018-02-21T03:56:27.696Z,118.07
2018-02-21T03:57:31.959Z,135.00
2018-02-21T03:58:36.176Z,116.95
2018-02-21T03:59:40.940Z,134.20
2018-02-21T04:00:46.279Z,134.60
2018-02-21T04:01:51.223Z,140.18
2018-02-21T04:02:55.444Z,129.57
2018-02-21T04:03:59.632Z,141.70
2018-02-21T04:05:03.920Z,126.97
2018-02-21T04:06:08.129Z,125.80
2018-02-21T04:07:13.685Z,130.65
2018-02-21T04:08:18.548Z,124.90
2018-02-21T04:09:23.239Z,146.15
2018-02-21T04:10:27.530Z,128.57
2018-02-21T04:11:32.486Z,139.15
2018-02-21T04:12:36.681Z,123.97
2018-02-21T04:13:41.046Z,136.15
2018-02-21T04:14:46.168Z,124.18
2018-02-21T04:15:50.963Z,137.62
2018-02-21T04:16:55.236Z,145.20
2018-02-21T04:17:59.452Z,146.48
2018-02-21T04:19:04.416Z,138.48
2018-02-21T04:20:08.620Z,122.37
2018-02-21T04:21:13.126Z,124.72
2018-02-21T04:22:17.680Z,126.30
2018-02-21T04:23:23.431Z,119.22
2018-02-21T04:24:27.699Z,124.97
2018-02-21T04:25:32.680Z,129.68
2018-02-21T04:26:36.942Z,124.50
2018-02-21T04:27:42.618Z,138.12
2018-02-21T04:28:47.037Z,130.30
2018-02-21T04:29:51.415Z,130.50
2018-02-21T04:30:55.678Z,132.18
2018-02-21T04:31:59.929Z,122.05
2018-02-21T04:33:04.902Z,126.55
2018-02-21T04:34:09.104Z,141.50
2018-02-21T04:35:13.430Z,120.43
2018-02-21T04:36:17.786Z,120.78
2018-02-21T04:37:22.894Z,126.97
2018-02-21T04:38:27.946Z,139.88
2018-02-21T04:39:32.196Z,148.07
2018-02-21T04:40:36.411Z,138.43
2018-02-21T04:41:40.723Z,137.95
2018-02-21T04:42:46.394Z,137.32
2018-02-21T04:43:51.283Z,135.93
2018-02-21T04:44:56.339Z,148.18
2018-02-21T04:46:00.550Z,141.23
2018-02-21T04:47:04.753Z,121.22
2018-02-21T04:48:08.988Z,131.73
2018-02-21T04:49:14.039Z,131.25
2018-02-21T04:50:19.191Z,129.93
2018-02-21T04:51:23.836Z,138.10
2018-02-21T04:52:28.068Z,141.48
2018-02-21T04:53:32.324Z,127.82
2018-02-21T04:54:39.396Z,126.62
2018-02-21T04:55:51.824Z,124.57
2018-02-21T04:57:14.050Z,123.07
2018-02-21T04:59:55.421Z,128.90
2018-02-21T05:00:59.623Z,141.80
2018-02-21T05:02:03.833Z,133.23
2018-02-21T05:03:08.068Z,136.65
2018-02-21T05:04:12.355Z,127.38
2018-02-21T05:05:16.826Z,136.68
2018-02-21T05:06:21.347Z,147.25
2018-02-21T05:07:26.313Z,149.77
2018-02-21T05:08:30.512Z,149.40
2018-02-21T05:09:34.724Z,149.55
2018-02-21T05:10:38.989Z,149.75
2018-02-21T05:11:43.903Z,131.82
2018-02-21T05:12:48.958Z,133.75
2018-02-21T05:13:53.643Z,132.25
2018-02-21T05:14:57.865Z,131.43
2018-02-21T05:16:02.197Z,141.15
2018-02-21T05:17:07.147Z,150.12
2018-02-21T05:18:11.448Z,141.88
2018-02-21T05:19:16.483Z,145.65
2018-02-21T05:20:20.984Z,132.50
2018-02-21T05:21:25.250Z,145.48
2018-02-21T05:22:29.453Z,135.02
2018-02-21T05:23:33.692Z,140.52
2018-02-21T05:24:37.879Z,141.98
2018-02-21T05:25:42.954Z,135.27
2018-02-21T05:26:48.076Z,135.75
2018-02-21T05:27:53.409Z,138.88
2018-02-21T05:28:57.723Z,138.95
2018-02-21T05:30:02.701Z,137.45
2018-02-21T05:31:06.916Z,127.75
2018-02-21T05:32:11.251Z,140.45
2018-02-21T05:33:15.526Z,127.65
2018-02-21T05:34:19.767Z,120.65
2018-02-21T05:35:23.981Z,127.90
2018-02-21T05:36:28.199Z,127.70
2018-02-21T05:37:32.469Z,127.12
2018-02-21T05:38:36.682Z,132.95
2018-02-21T05:39:41.008Z,140.05
2018-02-21T05:40:45.379Z,137.65
2018-02-21T05:41:50.451Z,135.90
2018-02-21T05:42:54.706Z,139.82
2018-02-21T05:43:58.891Z,153.27
2018-02-21T05:45:03.090Z,120.60
2018-02-21T05:46:07.310Z,138.32
2018-02-21T05:47:11.775Z,127.87
2018-02-21T05:48:16.207Z,118.30
2018-02-21T05:49:21.186Z,138.90
2018-02-21T05:50:25.400Z,136.43
2018-02-21T05:51:29.630Z,136.10
2018-02-21T05:52:33.875Z,140.27
2018-02-21T05:53:38.158Z,121.00
2018-02-21T05:54:43.220Z,134.07
2018-02-21T05:55:47.713Z,133.85
2018-02-21T05:56:52.295Z,131.87
2018-02-21T05:57:56.545Z,131.23
2018-02-21T05:59:01.565Z,153.93
2018-02-21T06:00:05.776Z,144.70
2018-02-21T06:01:09.985Z,141.60
2018-02-21T06:02:14.312Z,141.20
2018-02-21T06:03:18.964Z,139.52
2018-02-21T06:04:24.095Z,137.23
2018-02-21T06:05:28.323Z,151.05
2018-02-21T06:06:32.525Z,137.48
2018-02-21T06:07:36.732Z,137.57
2018-02-21T06:08:41.907Z,146.37
2018-02-21T06:09:46.854Z,131.07
2018-02-21T06:10:51.118Z,138.90
2018-02-21T06:11:55.335Z,137.23
2018-02-21T06:12:59.535Z,152.12
2018-02-21T06:14:03.727Z,142.25
2018-02-21T06:15:07.950Z,171.40
2018-02-21T06:16:12.540Z,164.62
2018-02-21T06:17:17.453Z,183.32
2018-02-21T06:18:22.486Z,169.43
2018-02-21T06:19:26.743Z,171.50
2018-02-21T06:20:30.943Z,192.73
2018-02-21T06:21:35.142Z,185.90
2018-02-21T06:22:39.421Z,190.68
2018-02-21T06:23:43.847Z,188.90
2018-02-21T06:24:48.235Z,175.85
2018-02-21T06:25:53.111Z,164.05
2018-02-21T06:26:57.406Z,155.37
2018-02-21T06:28:02.424Z,137.70
2018-02-21T06:29:06.612Z,140.48
2018-02-21T06:30:12.529Z,142.57
2018-02-21T06:31:17.212Z,150.52
2018-02-21T06:32:22.322Z,154.43
2018-02-21T06:33:26.561Z,139.57
2018-02-21T06:34:31.533Z,148.68
2018-02-21T06:35:35.757Z,148.57
2018-02-21T06:36:39.963Z,141.80
2018-02-21T06:37:45.417Z,145.95
2018-02-21T06:38:50.560Z,151.25
2018-02-21T06:39:56.150Z,147.57
2018-02-21T06:41:00.430Z,132.32
2018-02-21T06:42:04.658Z,140.02
2018-02-21T06:43:09.624Z,153.87
2018-02-21T06:44:14.723Z,146.45
2018-02-21T06:45:19.043Z,164.32
2018-02-21T06:46:23.303Z,151.98
2018-02-21T06:47:27.531Z,155.70
2018-02-21T06:48:31.724Z,145.07
2018-02-21T06:49:35.985Z,153.40
2018-02-21T06:50:40.228Z,128.90
2018-02-21T06:51:45.170Z,141.12
2018-02-21T06:52:50.040Z,134.00
2018-02-21T06:53:54.316Z,144.85
2018-02-21T06:54:58.548Z,132.00
2018-02-21T06:56:02.735Z,124.62
2018-02-21T06:57:06.928Z,123.13
2018-02-21T06:58:11.399Z,126.55
2018-02-21T06:59:16.960Z,139.65
2018-02-21T07:00:21.261Z,125.57
2018-02-21T07:01:25.462Z,128.18
2018-02-21T07:02:36.289Z,133.43
2018-02-21T07:03:40.637Z,128.30
2018-02-21T07:04:45.891Z,129.85
2018-02-21T07:05:50.210Z,133.60
2018-02-21T07:06:54.694Z,140.30
2018-02-21T07:07:59.731Z,122.62
2018-02-21T07:09:04.732Z,145.05
2018-02-21T07:10:08.968Z,157.77
2018-02-21T07:11:14.580Z,156.63
2018-02-21T07:12:19.005Z,148.02
2018-02-21T07:13:23.553Z,158.10
2018-02-21T07:14:27.793Z,139.00
2018-02-21T07:15:32.003Z,157.93
2018-02-21T07:16:36.214Z,135.02
2018-02-21T07:17:40.833Z,136.80
2018-02-21T07:18:45.771Z,147.70
2018-02-21T07:19:50.421Z,131.95
2018-02-21T07:20:54.774Z,134.80
2018-02-21T07:21:59.782Z,135.25
2018-02-21T07:23:03.994Z,129.60
2018-02-21T07:24:08.210Z,135.60
2018-02-21T07:25:12.430Z,132.10
2018-02-21T07:26:17.419Z,130.65
2018-02-21T07:27:21.659Z,117.80
2018-02-21T07:28:25.947Z,138.15
2018-02-21T07:29:30.145Z,135.45
2018-02-21T07:30:34.335Z,148.48
2018-02-21T07:31:38.524Z,128.70
2018-02-21T07:32:43.553Z,141.05
2018-02-21T07:33:47.828Z,125.85
2018-02-21T07:34:52.070Z,140.95
2018-02-21T07:35:57.028Z,134.45
2018-02-21T07:37:01.243Z,121.68
2018-02-21T07:38:05.489Z,130.87
2018-02-21T07:39:09.718Z,138.65
2018-02-21T07:40:14.735Z,141.60
2018-02-21T07:41:19.099Z,133.40
2018-02-21T07:42:23.296Z,137.43
2018-02-21T07:43:28.311Z,132.23
2018-02-21T07:44:33.267Z,137.73
2018-02-21T07:45:37.459Z,141.45
2018-02-21T07:46:42.521Z,128.38
2018-02-21T07:47:46.747Z,141.02
2018-02-21T07:48:50.947Z,127.28
2018-02-21T07:49:55.143Z,133.02
2018-02-21T07:50:59.339Z,134.82
2018-02-21T07:52:03.588Z,126.97
2018-02-21T07:53:07.818Z,135.10
2018-02-21T07:54:12.049Z,127.20
2018-02-21T07:55:17.063Z,131.50
2018-02-21T07:56:22.778Z,123.28
2018-02-21T07:57:26.988Z,120.60
2018-02-21T07:58:31.465Z,112.60
2018-02-21T07:59:36.445Z,120.78
2018-02-21T08:00:40.730Z,156.05
2018-02-21T08:01:44.941Z,146.62
2018-02-21T08:02:49.144Z,126.95
2018-02-21T08:03:53.349Z,126.80
2018-02-21T08:04:57.586Z,130.60
2018-02-21T08:06:01.852Z,118.45
2018-02-21T08:07:06.851Z,126.43
2018-02-21T08:08:11.053Z,114.37
2018-02-21T08:09:15.300Z,114.35
2018-02-21T08:10:20.323Z,123.10
2018-02-21T08:11:24.546Z,117.93
2018-02-21T08:12:29.545Z,116.80
2018-02-21T08:13:33.749Z,115.75
2018-02-21T08:14:37.958Z,113.72
2018-02-21T08:15:42.236Z,119.80
2018-02-21T08:16:46.631Z,117.13
2018-02-21T08:17:51.612Z,117.07
2018-02-21T08:18:55.813Z,113.95
2018-02-21T08:20:00.028Z,117.07
2018-02-21T08:21:04.298Z,115.28
2018-02-21T08:22:08.524Z,115.40
2018-02-21T08:23:12.824Z,112.35
2018-02-21T08:24:17.050Z,123.65
2018-02-21T08:25:21.342Z,123.43
2018-02-21T08:26:25.633Z,107.60
2018-02-21T08:27:29.844Z,132.65
2018-02-21T08:28:34.028Z,110.93
2018-02-21T08:29:38.215Z,115.22
2018-02-21T08:30:42.603Z,115.10
2018-02-21T08:31:47.071Z,109.50
2018-02-21T08:32:51.563Z,107.97
2018-02-21T08:33:55.769Z,124.12
2018-02-21T08:34:59.981Z,111.53
2018-02-21T08:36:04.164Z,105.90
2018-02-21T08:37:09.154Z,130.70
2018-02-21T08:38:13.953Z,129.32
2018-02-21T08:39:18.616Z,114.03
2018-02-21T08:40:23.669Z,105.07
2018-02-21T08:41:27.871Z,114.80
2018-02-21T08:42:32.833Z,104.35
2018-02-21T08:43:37.076Z,102.85
2018-02-21T08:44:41.390Z,110.12
2018-02-21T08:45:45.930Z,125.70
2018-02-21T08:46:50.161Z,110.03
2018-02-21T08:47:54.599Z,108.80
2018-02-21T08:48:58.833Z,113.32
2018-02-21T08:50:03.024Z,115.55
2018-02-21T08:51:07.243Z,120.95
2018-02-21T08:52:11.940Z,97.35
2018-02-21T08:53:16.522Z,97.35
2018-02-21T08:54:20.802Z,101.25
2018-02-21T08:55:25.928Z,111.35
2018-02-21T08:56:30.126Z,117.87
2018-02-21T08:57:34.334Z,108.57
2018-02-21T08:58:38.582Z,101.43
2018-02-21T08:59:44.093Z,117.50
2018-02-21T09:00:48.661Z,106.75
2018-02-21T09:01:53.200Z,102.75
2018-02-21T09:02:57.457Z,108.75
2018-02-21T09:04:01.721Z,109.70
2018-02-21T09:05:06.695Z,99.53
2018-02-21T09:06:11.656Z,107.10
2018-02-21T09:07:16.693Z,105.32
2018-02-21T09:08:21.168Z,116.20
2018-02-21T09:09:25.421Z,106.80
2018-02-21T09:10:29.685Z,97.70
2018-02-21T09:11:33.879Z,101.55
2018-02-21T09:12:38.072Z,98.65
2018-02-21T09:13:44.323Z,106.22
2018-02-21T09:14:49.607Z,110.65
2018-02-21T09:15:54.030Z,102.97
2018-02-21T09:16:58.234Z,110.18
2018-02-21T09:18:02.430Z,100.38
2018-02-21T09:19:06.612Z,95.25
2018-02-21T09:20:11.651Z,99.47
2018-02-21T09:21:17.414Z,93.45
2018-02-21T09:22:21.800Z,100.07
2018-02-21T09:23:26.091Z,101.15
2018-02-21T09:24:30.422Z,97.90
2018-02-21T09:25:35.382Z,110.75
2018-02-21T09:26:39.574Z,93.47
2018-02-21T09:27:46.029Z,101.87
2018-02-21T09:28:50.386Z,110.97
2018-02-21T09:29:54.748Z,98.93
2018-02-21T09:30:58.935Z,90.00
2018-02-21T09:32:03.121Z,97.18
2018-02-21T09:33:07.535Z,108.95
2018-02-21T09:34:12.140Z,95.65
2018-02-21T09:35:18.466Z,99.10
2018-02-21T09:36:24.045Z,96.28
2018-02-21T09:37:28.245Z,94.93
2018-02-21T09:38:33.221Z,92.50
2018-02-21T09:39:37.456Z,100.50
2018-02-21T09:40:42.019Z,97.75
2018-02-21T09:41:47.328Z,101.18
2018-02-21T09:42:51.764Z,84.78
2018-02-21T09:43:56.099Z,85.87
2018-02-21T09:45:00.319Z,97.93
2018-02-21T09:46:04.492Z,98.75
2018-02-21T09:47:08.678Z,98.68
2018-02-21T09:48:15.007Z,94.20
2018-02-21T09:49:19.418Z,86.10
2018-02-21T09:50:23.823Z,84.57
2018-02-21T09:51:28.021Z,87.22
2018-02-21T09:52:32.215Z,87.43
2018-02-21T09:53:36.402Z,102.03
2018-02-21T09:54:42.121Z,92.45
2018-02-21T09:55:46.976Z,92.78
2018-02-21T09:56:52.058Z,92.60
2018-02-21T09:57:57.095Z,94.40
2018-02-21T09:59:01.290Z,96.30
2018-02-21T10:00:05.468Z,83.27
2018-02-21T10:01:09.725Z,81.15
2018-02-21T10:02:15.495Z,77.15
2018-02-21T10:03:19.873Z,90.93
2018-02-21T10:04:24.141Z,89.20
2018-02-21T10:05:28.324Z,89.82
2018-02-21T10:06:32.565Z,94.20
2018-02-21T10:07:37.555Z,92.25
2018-02-21T10:08:42.492Z,92.72
2018-02-21T10:09:47.574Z,85.28
2018-02-21T10:10:51.908Z,102.00
2018-02-21T10:11:56.880Z,91.93
2018-02-21T10:13:01.091Z,85.33
2018-02-21T10:14:05.290Z,75.68
2018-02-21T10:15:09.544Z,88.35
2018-02-21T10:16:15.637Z,88.57
2018-02-21T10:17:19.944Z,76.03
2018-02-21T10:18:24.225Z,82.82
2018-02-21T10:19:28.414Z,74.87
2018-02-21T10:20:32.583Z,88.87
2018-02-21T10:21:36.817Z,82.90
2018-02-21T10:22:41.074Z,82.33
2018-02-21T10:23:47.000Z,95.53
2018-02-21T10:24:51.331Z,72.53
2018-02-21T10:25:55.588Z,80.90
2018-02-21T10:26:59.811Z,76.50
2018-02-21T10:28:04.014Z,81.53
2018-02-21T10:29:08.211Z,80.32
2018-02-21T10:30:12.937Z,85.00
2018-02-21T10:31:18.284Z,80.90
2018-02-21T10:32:22.644Z,81.30
2018-02-21T10:33:26.854Z,73.70
2018-02-21T10:34:31.035Z,78.62
2018-02-21T10:35:35.219Z,69.45
2018-02-21T10:36:39.399Z,67.83
2018-02-21T10:37:44.104Z,80.73
2018-02-21T10:38:48.957Z,74.10
2018-02-21T10:39:53.679Z,103.13
2018-02-21T10:40:57.889Z,85.55
2018-02-21T10:42:02.080Z,80.43
2018-02-21T10:43:06.289Z,84.43
2018-02-21T10:44:10.515Z,78.05
2018-02-21T10:45:15.254Z,72.37
2018-02-21T10:46:19.746Z,74.57
2018-02-21T10:47:24.082Z,79.17
2018-02-21T10:48:28.341Z,68.82
2018-02-21T10:49:32.520Z,72.57
2018-02-21T10:50:36.743Z,72.20
2018-02-21T10:51:40.968Z,77.18
2018-02-21T10:52:46.043Z,75.97
2018-02-21T10:53:50.570Z,73.90
2018-02-21T10:54:55.057Z,67.18
2018-02-21T10:56:00.004Z,73.50
2018-02-21T10:57:04.204Z,75.70
2018-02-21T10:58:08.403Z,79.00
2018-02-21T10:59:14.473Z,67.37
2018-02-21T11:00:24.387Z,65.93
2018-02-21T11:01:28.571Z,101.00
2018-02-21T11:02:32.770Z,79.05
2018-02-21T11:03:36.939Z,78.20
2018-02-21T11:04:42.189Z,73.07
2018-02-21T11:05:47.605Z,74.87
2018-02-21T11:06:51.991Z,64.15
2018-02-21T11:07:56.670Z,69.28
2018-02-21T11:09:00.870Z,70.13
2018-02-21T11:10:05.082Z,55.17
2018-02-21T11:11:09.324Z,62.10
2018-02-21T11:12:15.370Z,76.93
2018-02-21T11:13:19.671Z,69.57
2018-02-21T11:14:23.943Z,60.90
2018-02-21T11:15:28.155Z,68.23
2018-02-21T11:16:33.122Z,67.23
2018-02-21T11:17:37.309Z,68.78
2018-02-21T11:18:42.671Z,61.37
2018-02-21T11:19:47.840Z,69.55
2018-02-21T11:20:52.379Z,58.53
2018-02-21T11:21:56.608Z,69.37
2018-02-21T11:23:01.543Z,58.13
2018-02-21T11:24:05.720Z,69.18
2018-02-21T11:25:09.938Z,60.60
2018-02-21T11:26:15.405Z,68.13
2018-02-21T11:27:21.551Z,62.90
2018-02-21T11:28:25.811Z,57.80
2018-02-21T11:29:29.985Z,61.67
2018-02-21T11:30:34.978Z,59.87
2018-02-21T11:31:39.180Z,71.47
2018-02-21T11:32:44.662Z,84.60
2018-02-21T11:33:49.152Z,62.87
2018-02-21T11:34:54.176Z,55.80
2018-02-21T11:35:58.390Z,55.10
2018-02-21T11:37:02.574Z,58.83
2018-02-21T11:38:06.828Z,65.93
2018-02-21T11:39:11.971Z,59.63
2018-02-21T11:40:16.224Z,62.47
2018-02-21T11:41:20.680Z,59.00
2018-02-21T11:42:24.886Z,61.13
2018-02-21T11:43:29.112Z,58.73
2018-02-21T11:44:34.062Z,66.97
2018-02-21T11:45:38.231Z,61.40
2018-02-21T11:46:42.915Z,55.80
2018-02-21T11:47:48.145Z,69.67
2018-02-21T11:48:52.536Z,58.17
2018-02-21T11:49:56.747Z,57.43
2018-02-21T11:51:01.707Z,66.63
2018-02-21T11:52:05.912Z,58.10
2018-02-21T11:53:10.103Z,60.23
2018-02-21T11:54:14.640Z,60.03
2018-02-21T11:55:19.152Z,59.87
2018-02-21T11:56:23.439Z,59.37
2018-02-21T11:57:27.686Z,55.13
2018-02-21T11:58:31.873Z,63.80
2018-02-21T11:59:36.115Z,64.13
2018-02-21T12:00:40.314Z,69.10
2018-02-21T12:01:46.470Z,57.70
2018-02-21T12:02:50.844Z,52.30
2018-02-21T12:03:55.250Z,55.53
2018-02-21T12:04:59.485Z,57.67
2018-02-21T12:06:03.675Z,54.53
2018-02-21T12:07:08.634Z,65.60
2018-02-21T12:08:13.125Z,59.80
2018-02-21T12:09:17.997Z,56.83
2018-02-21T12:10:24.101Z,71.77
2018-02-21T12:11:29.043Z,57.87
2018-02-21T12:12:34.494Z,56.80
2018-02-21T12:13:38.678Z,57.73
2018-02-21T12:14:45.225Z,64.93
2018-02-21T12:15:50.611Z,51.57
2018-02-21T12:16:55.056Z,62.60
2018-02-21T12:17:59.227Z,61.63
2018-02-21T12:19:03.417Z,59.27
2018-02-21T12:20:08.395Z,62.27
2018-02-21T12:21:13.420Z,67.90
2018-02-21T12:22:17.983Z,70.68
2018-02-21T12:23:23.832Z,63.10
2018-02-21T12:24:28.830Z,62.40
2018-02-21T12:25:33.022Z,56.03
2018-02-21T12:26:37.196Z,54.60
2018-02-21T12:27:42.629Z,58.97
2018-02-21T12:28:48.372Z,61.57
2018-02-21T12:29:53.445Z,63.83
2018-02-21T12:30:57.659Z,57.60
2018-02-21T12:32:03.240Z,59.13
2018-02-21T12:33:07.415Z,54.60
2018-02-21T12:34:12.327Z,58.87
2018-02-21T12:35:17.746Z,53.25
2018-02-21T12:36:22.731Z,52.30
2018-02-21T12:37:27.736Z,58.33
2018-02-21T12:38:31.984Z,59.37
2018-02-21T12:39:36.663Z,53.13
2018-02-21T12:40:47.213Z,56.90
2018-02-21T12:41:51.941Z,61.40
2018-02-21T12:42:56.167Z,61.10
2018-02-21T12:44:00.414Z,57.20
2018-02-21T12:45:04.611Z,54.73
2018-02-21T12:46:08.801Z,53.10
2018-02-21T12:47:13.786Z,55.77
2018-02-21T12:48:19.566Z,48.30
2018-02-21T12:49:23.875Z,46.07
2018-02-21T12:50:28.069Z,56.07
2018-02-21T12:51:33.022Z,60.03
2018-02-21T12:52:37.211Z,49.42
2018-02-21T12:53:42.414Z,61.40
2018-02-21T12:54:47.109Z,57.60
2018-02-21T12:55:51.321Z,56.43
2018-02-21T12:56:55.757Z,60.03
2018-02-21T12:57:59.947Z,53.60
2018-02-21T12:59:04.137Z,49.53
2018-02-21T13:00:08.468Z,46.73
2018-02-21T13:01:13.589Z,48.57
2018-02-21T13:02:18.171Z,47.13
2018-02-21T13:03:22.476Z,51.83
2018-02-21T13:04:26.723Z,48.53
2018-02-21T13:05:30.934Z,54.97
2018-02-21T13:06:35.111Z,44.15
2018-02-21T13:07:40.068Z,48.63
2018-02-21T13:08:45.577Z,46.23
2018-02-21T13:09:50.474Z,44.05
2018-02-21T13:10:54.866Z,51.03
2018-02-21T13:11:59.045Z,44.50
2018-02-21T13:13:03.995Z,50.93
2018-02-21T13:14:08.176Z,43.77
2018-02-21T13:15:13.441Z,47.73
2018-02-21T13:16:17.834Z,49.00
2018-02-21T13:17:22.030Z,46.70
2018-02-21T13:18:26.272Z,47.27
2018-02-21T13:19:31.195Z,39.70
2018-02-21T13:20:35.411Z,44.13
2018-02-21T13:21:39.616Z,42.80
2018-02-21T13:22:44.585Z,39.67
2018-02-21T13:23:49.118Z,41.13
2018-02-21T13:24:53.408Z,39.70
2018-02-21T13:25:57.642Z,47.00
2018-02-21T13:27:01.832Z,39.50
2018-02-21T13:28:06.050Z,40.65
2018-02-21T13:29:10.279Z,41.40
2018-02-21T13:30:15.745Z,48.03
2018-02-21T13:31:20.262Z,40.33
2018-02-21T13:32:25.238Z,59.40
2018-02-21T13:33:29.410Z,45.53
2018-02-21T13:34:34.363Z,40.60
2018-02-21T13:35:38.577Z,52.60
2018-02-21T13:36:43.172Z,48.83